Pagina principale
METAR-TAF:

METAR-TAF

Aeroporti :

Aeroporto di Catania-Fontanarossa

Catania, Italia

latitudine: 37-28N, longitudine: 015-03E, altezza: 11 m

Osservazione

Il bollettino è stato emesso 43 minuti fa, alle 09:50 UTC
Vento 3 kt da direzioni variabili
Temperature 16°C
Umidità 72%
Pressione 1014 hPa
Visibilità 10 km o più
nessuna nube inferiore a 1500 m e nessun cumulonembo

METAR: LICC 090950Z VRB03KT CAVOK 16/11 Q1014

Ora: 11:33 (10:33 UTC)

Previsione

Il bollettino è stato emesso 5 ore e 33 minuti fa, alle 05:00 UTC
Previsione valida dal 09 alle 06 UTC al 10 alle 06 UTC
Vento 5 kt da direzioni variabili
Visibilità: 6000 m
Nuvoloso ad un'altezza di 4000 ft
Evoluzione graduale
dal 09 alle 08 UTC al 09 alle 10 UTC
Vento 12 kt da est
Evoluzione graduale
dal 09 alle 18 UTC al 09 alle 20 UTC
Vento 4 kt da direzioni variabili

TAF: LICC 090500Z 0906/1006 VRB05KT 6000 BKN040 BECMG 0908/0910 08012KT BECMG 0918/0920 VRB04KT

Osservazioni e previsioni meteorologiche di più di 4000 aeroporti (messaggi METAR e TAF).

Le stazioni disponibili sono rappresentate dai dischi gialli e rossi sulla carta.

Puntare il mouse per vedere il nome della stazione.

Clicca sopra per visualizzare le osservazioni e previsioni meteorologiche.

Per cambiare la mappa : fare clic sui pulsanti verdi con una croce nera per ingrandire, il pulsante verde con un trattino per diminuire, o sulla freccia verde per le mappe adiacenti.


METAR-TAF: